Time;durP1;ratioP1;P1;durP2;ratioP2;P2;SDS_P1;SDS_P2;PMS_P1;PMS_P2;Temp;Humidity;BMP_temperature;BMP_pressure;BME280_temperature;BME280_humidity;BME280_pressure;Samples;Min_cycle;Max_cycle;Signal;HPM_P1;HPM_P2
2023/05/30 00:00:50;;;;;;;;;;;;;;;;;;5077226;28;19967;-63
2023/05/30 00:03:16;;;;;;;;;;;;;;;;;;5077214;28;20005;-63
2023/05/30 00:05:42;;;;;;;;;;;;;;;;;;5077398;28;19994;-63
2023/05/30 00:08:08;;;;;;;;;;;;;;;;;;5077326;28;19962;-63
2023/05/30 00:10:34;;;;;;;;;;;;;;;;;;5077559;28;19963;-62
2023/05/30 00:13:00;;;;;;;;;;;;;;;;;;5077210;28;20440;-63
2023/05/30 00:15:26;;;;;;;;;;;;;;;;;;5077186;28;19979;-63
2023/05/30 00:17:52;;;;;;;;;;;;;;;;;;5077128;28;20029;-64
2023/05/30 00:20:19;;;;;;;;;;;;;;;;;;5077159;28;19956;-65
2023/05/30 00:22:45;;;;;;;;;;;;;;;;;;5076843;28;20005;-65
2023/05/30 00:25:11;;;;;;;;;;;;;;;;;;5076777;28;19956;-65
2023/05/30 00:27:36;;;;;;;;;;;;;;;;;;5076976;28;19955;-65
2023/05/30 00:30:03;;;;;;;;;;;;;;;;;;5076661;28;20384;-64
2023/05/30 00:32:29;;;;;;;;;;;;;;;;;;5076979;28;20056;-65
2023/05/30 00:34:55;;;;;;;;;;;;;;;;;;5076547;28;19971;-64
2023/05/30 00:37:21;;;;;;;;;;;;;;;;;;5076464;28;19975;-65
2023/05/30 00:39:47;;;;;;;;;;;;;;;;;;5077029;28;20475;-64
2023/05/30 00:42:13;;;;;;;;;;;;;;;;;;5076784;28;20094;-64
2023/05/30 00:44:39;;;;;;;;;;;;;;;;;;5076381;28;19977;-65
2023/05/30 00:47:05;;;;;;;;;;;;;;;;;;5076422;28;19955;-64
2023/05/30 00:49:31;;;;;;;;;;;;;;;;;;5076311;28;19955;-65
2023/05/30 00:51:57;;;;;;;;;;;;;;;;;;5076264;28;19956;-65
2023/05/30 00:54:23;;;;;;;;;;;;;;;;;;5075705;28;19959;-65
2023/05/30 00:56:49;;;;;;;;;;;;;;;;;;5076368;28;19975;-65
2023/05/30 00:59:14;;;;;;;;;;;;;;;;;;5076663;28;20009;-65
2023/05/30 01:01:43;;;;;;;;;;;;;;;;;;5076614;28;19962;-65
2023/05/30 01:04:09;;;;;;;;;;;;;;;;;;5076344;28;19963;-65
2023/05/30 01:06:37;;;;;;;;;;;;;;;;;;5076055;28;20430;-64
2023/05/30 01:09:04;;;;;;;;;;;;;;;;;;5076769;28;20393;-64
2023/05/30 01:11:30;;;;;;;;;;;;;;;;;;5075968;28;19959;-65
2023/05/30 01:13:56;;;;;;;;;;;;;;;;;;5076185;28;20298;-65
2023/05/30 01:16:22;;;;;;;;;;;;;;;;;;5075739;28;20440;-65
2023/05/30 01:18:48;;;;;;;;;;;;;;;;;;5075794;28;19959;-65
2023/05/30 01:21:15;;;;;;;;;;;;;;;;;;5075725;28;20441;-65
2023/05/30 01:23:43;;;;;;;;;;;;;;;;;;5075932;28;20046;-65
2023/05/30 01:26:09;;;;;;;;;;;;;;;;;;5075956;28;19956;-64
2023/05/30 01:28:36;;;;;;;;;;;;;;;;;;5075585;28;20001;-65
2023/05/30 01:31:02;;;;;;;;;;;;;;;;;;5075599;28;19962;-65
2023/05/30 01:33:28;;;;;;;;;;;;;;;;;;5075442;28;20062;-65
2023/05/30 01:35:54;;;;;;;;;;;;;;;;;;5075391;28;19955;-64
2023/05/30 01:38:20;;;;;;;;;;;;;;;;;;5075399;28;20409;-65
2023/05/30 01:40:46;;;;;;;;;;;;;;;;;;5075373;28;19999;-65
2023/05/30 01:43:12;;;;;;;;;;;;;;;;;;5075705;28;20472;-65
2023/05/30 01:45:37;;;;;;;;;;;;;;;;;;5075237;28;19962;-65
2023/05/30 01:48:03;;;;;;;;;;;;;;;;;;5075448;28;19956;-65
2023/05/30 01:50:29;;;;;;;;;;;;;;;;;;5075162;28;19964;-64
2023/05/30 01:52:55;;;;;;;;;;;;;;;;;;5075085;28;19987;-64
2023/05/30 01:55:21;;;;;;;;;;;;;;;;;;5075035;28;19962;-65
2023/05/30 01:57:47;;;;;;;;;;;;;;;;;;5074886;28;19982;-65
2023/05/30 02:00:13;;;;;;;;;;;;;;;;;;5075493;28;19977;-64
2023/05/30 02:02:39;;;;;;;;;;;;;;;;;;5075486;28;20390;-64
2023/05/30 02:05:05;;;;;;;;;;;;;;;;;;5074885;28;19999;-64
2023/05/30 02:07:31;;;;;;;;;;;;;;;;;;5074202;28;19955;-65
2023/05/30 02:09:57;;;;;;;;;;;;;;;;;;5074991;28;20356;-65
2023/05/30 02:12:24;;;;;;;;;;;;;;;;;;5074959;28;20013;-64
2023/05/30 02:14:52;;;;;;;;;;;;;;;;;;5074909;28;19959;-64
2023/05/30 02:17:21;;;;;;;;;;;;;;;;;;5074879;28;19975;-64
2023/05/30 02:19:46;;;;;;;;;;;;;;;;;;5074832;28;19960;-65
2023/05/30 02:22:12;;;;;;;;;;;;;;;;;;5074539;28;20328;-65
2023/05/30 02:24:38;;;;;;;;;;;;;;;;;;5074500;28;19971;-65
2023/05/30 02:27:04;;;;;;;;;;;;;;;;;;5074711;28;19955;-64
2023/05/30 02:29:30;;;;;;;;;;;;;;;;;;5074395;28;19982;-65
2023/05/30 02:31:56;;;;;;;;;;;;;;;;;;5074646;28;20314;-65
2023/05/30 02:34:22;;;;;;;;;;;;;;;;;;5074777;28;20328;-64
2023/05/30 02:36:48;;;;;;;;;;;;;;;;;;5074163;28;19979;-64
2023/05/30 02:39:14;;;;;;;;;;;;;;;;;;5074316;28;20439;-64
2023/05/30 02:41:40;;;;;;;;;;;;;;;;;;5074142;28;19999;-65
2023/05/30 02:44:06;;;;;;;;;;;;;;;;;;5074702;28;19962;-65
2023/05/30 02:46:33;;;;;;;;;;;;;;;;;;5074413;28;20046;-65
2023/05/30 02:48:59;;;;;;;;;;;;;;;;;;5074087;28;19956;-65
2023/05/30 02:51:25;;;;;;;;;;;;;;;;;;5074322;28;19978;-64
2023/05/30 02:53:51;;;;;;;;;;;;;;;;;;5074518;28;20405;-65
2023/05/30 02:56:17;;;;;;;;;;;;;;;;;;5073891;28;20010;-64
2023/05/30 02:58:42;;;;;;;;;;;;;;;;;;5074440;28;19962;-65
2023/05/30 03:01:08;;;;;;;;;;;;;;;;;;5074176;28;19962;-65
2023/05/30 03:03:34;;;;;;;;;;;;;;;;;;5073776;28;20471;-65
2023/05/30 03:06:01;;;;;;;;;;;;;;;;;;5074042;28;19964;-64
2023/05/30 03:08:28;;;;;;;;;;;;;;;;;;5073765;28;19966;-65
2023/05/30 03:10:54;;;;;;;;;;;;;;;;;;5074035;28;20042;-64
2023/05/30 03:13:20;;;;;;;;;;;;;;;;;;5074291;28;20017;-64
2023/05/30 03:15:46;;;;;;;;;;;;;;;;;;5073962;28;19959;-64
2023/05/30 03:18:12;;;;;;;;;;;;;;;;;;5073646;28;19978;-65
2023/05/30 03:20:38;;;;;;;;;;;;;;;;;;5073887;28;19960;-65
2023/05/30 03:23:03;;;;;;;;;;;;;;;;;;5073681;28;20008;-64
2023/05/30 03:25:29;;;;;;;;;;;;;;;;;;5073602;28;20057;-65
2023/05/30 03:27:55;;;;;;;;;;;;;;;;;;5073840;28;20401;-65
2023/05/30 03:30:25;;;;;;;;;;;;;;;;;;5073558;28;19959;-65
2023/05/30 03:32:52;;;;;;;;;;;;;;;;;;5073490;28;20058;-65
2023/05/30 03:35:18;;;;;;;;;;;;;;;;;;5073450;28;20459;-64
2023/05/30 03:37:44;;;;;;;;;;;;;;;;;;5073408;28;19975;-65
2023/05/30 03:40:10;;;;;;;;;;;;;;;;;;5073726;28;19959;-65
2023/05/30 03:42:36;;;;;;;;;;;;;;;;;;5073199;28;20082;-64
2023/05/30 03:45:02;;;;;;;;;;;;;;;;;;5073384;28;20005;-65
2023/05/30 03:47:27;;;;;;;;;;;;;;;;;;5073368;28;20329;-64
2023/05/30 03:49:53;;;;;;;;;;;;;;;;;;5073875;28;20317;-65
2023/05/30 03:52:19;;;;;;;;;;;;;;;;;;5073594;28;19956;-65
2023/05/30 03:54:45;;;;;;;;;;;;;;;;;;5073294;28;19962;-64
2023/05/30 03:57:11;;;;;;;;;;;;;;;;;;5073469;28;20345;-63
2023/05/30 03:59:37;;;;;;;;;;;;;;;;;;5073796;28;19956;-64
2023/05/30 04:02:03;;;;;;;;;;;;;;;;;;5073274;28;19955;-66
2023/05/30 04:04:29;;;;;;;;;;;;;;;;;;5074071;28;20470;-65
2023/05/30 04:06:54;;;;;;;;;;;;;;;;;;5073153;28;19963;-65
2023/05/30 04:09:20;;;;;;;;;;;;;;;;;;5073710;28;20436;-65
2023/05/30 04:11:46;;;;;;;;;;;;;;;;;;5073123;28;19956;-64
2023/05/30 04:14:12;;;;;;;;;;;;;;;;;;5073092;28;20320;-64
2023/05/30 04:16:38;;;;;;;;;;;;;;;;;;5073042;28;20070;-65
2023/05/30 04:19:05;;;;;;;;;;;;;;;;;;5073368;28;19994;-65
2023/05/30 04:21:30;;;;;;;;;;;;;;;;;;5073310;28;19963;-64
2023/05/30 04:23:56;;;;;;;;;;;;;;;;;;5073362;28;20005;-64
2023/05/30 04:26:22;;;;;;;;;;;;;;;;;;5073271;28;20329;-65
2023/05/30 04:28:50;;;;;;;;;;;;;;;;;;5073351;28;19956;-65
2023/05/30 04:31:16;;;;;;;;;;;;;;;;;;5075851;28;19961;-65
2023/05/30 04:33:45;;;;;;;;;;;;;;;;;;5077107;28;20320;-65
2023/05/30 04:36:18;;;;;;;;;;;;;;;;;;5076812;28;20006;-65
2023/05/30 04:38:44;;;;;;;;;;;;;;;;;;5076601;28;19960;-64
2023/05/30 04:41:11;;;;;;;;;;;;;;;;;;5076628;28;19974;-64
2023/05/30 04:43:37;;;;;;;;;;;;;;;;;;5076467;28;19959;-65
2023/05/30 04:46:04;;;;;;;;;;;;;;;;;;5076445;28;19956;-65
2023/05/30 04:48:30;;;;;;;;;;;;;;;;;;5075149;28;20054;-65
2023/05/30 04:50:58;;;;;;;;;;;;;;;;;;5076308;28;20054;-65
2023/05/30 04:53:24;;;;;;;;;;;;;;;;;;5076268;28;20444;-64
2023/05/30 04:55:50;;;;;;;;;;;;;;;;;;5076304;28;20050;-64
2023/05/30 04:58:16;;;;;;;;;;;;;;;;;;5076417;28;19983;-65
2023/05/30 05:00:42;;;;;;;;;;;;;;;;;;5076974;28;19956;-65
2023/05/30 05:03:08;;;;;;;;;;;;;;;;;;5074844;28;20390;-65
2023/05/30 05:05:34;;;;;;;;;;;;;;;;;;5076630;28;19956;-64
2023/05/30 05:08:00;;;;;;;;;;;;;;;;;;5076017;28;19960;-65
2023/05/30 05:10:26;;;;;;;;;;;;;;;;;;5075986;28;19959;-65
2023/05/30 05:12:52;;;;;;;;;;;;;;;;;;5075955;28;20381;-65
2023/05/30 05:15:18;;;;;;;;;;;;;;;;;;5076453;28;20348;-65
2023/05/30 05:17:43;;;;;;;;;;;;;;;;;;5076056;28;20066;-64
2023/05/30 05:20:10;;;;;;;;;;;;;;;;;;5075805;28;20008;-65
2023/05/30 05:22:36;;;;;;;;;;;;;;;;;;5075814;28;20005;-65
2023/05/30 05:25:02;;;;;;;;;;;;;;;;;;5075673;28;19959;-64
2023/05/30 05:27:28;;;;;;;;;;;;;;;;;;5075872;28;19959;-65
2023/05/30 05:29:55;;;;;;;;;;;;;;;;;;5076160;28;20000;-65
2023/05/30 05:32:21;;;;;;;;;;;;;;;;;;5075904;28;20006;-64
2023/05/30 05:34:47;;;;;;;;;;;;;;;;;;5075514;28;20453;-64
2023/05/30 05:37:13;;;;;;;;;;;;;;;;;;5075349;28;20437;-64
2023/05/30 05:39:39;;;;;;;;;;;;;;;;;;5075945;28;19963;-65
2023/05/30 05:42:06;;;;;;;;;;;;;;;;;;5075137;28;19991;-63
2023/05/30 05:44:32;;;;;;;;;;;;;;;;;;5075622;28;19955;-65
2023/05/30 05:46:58;;;;;;;;;;;;;;;;;;5075258;28;20042;-65
2023/05/30 05:49:24;;;;;;;;;;;;;;;;;;5075464;28;19956;-65
2023/05/30 05:51:50;;;;;;;;;;;;;;;;;;5075426;28;20002;-64
2023/05/30 05:54:16;;;;;;;;;;;;;;;;;;5075104;28;19956;-65
2023/05/30 05:56:42;;;;;;;;;;;;;;;;;;5073717;28;19986;-63
2023/05/30 05:59:12;;;;;;;;;;;;;;;;;;5075606;28;19956;-62
2023/05/30 06:01:38;;;;;;;;;;;;;;;;;;5074985;28;19955;-63
2023/05/30 06:04:04;;;;;;;;;;;;;;;;;;5075508;28;20021;-63
2023/05/30 06:06:30;;;;;;;;;;;;;;;;;;5075700;28;20404;-63
2023/05/30 06:08:56;;;;;;;;;;;;;;;;;;5075109;28;19956;-63
2023/05/30 06:11:22;;;;;;;;;;;;;;;;;;5075036;28;20428;-63
2023/05/30 06:13:48;;;;;;;;;;;;;;;;;;5074754;28;19955;-63
2023/05/30 06:16:14;;;;;;;;;;;;;;;;;;5074605;28;20060;-63
2023/05/30 06:18:40;;;;;;;;;;;;;;;;;;5074617;28;20058;-63
2023/05/30 06:21:06;;;;;;;;;;;;;;;;;;5074880;28;20038;-63
2023/05/30 06:23:32;;;;;;;;;;;;;;;;;;5074472;28;19959;-63
2023/05/30 06:25:58;;;;;;;;;;;;;;;;;;5074506;28;19954;-64
2023/05/30 06:28:24;;;;;;;;;;;;;;;;;;5074993;28;20376;-63
2023/05/30 06:30:50;;;;;;;;;;;;;;;;;;5074671;28;20003;-63
2023/05/30 06:33:16;;;;;;;;;;;;;;;;;;5074269;28;19959;-63
2023/05/30 06:35:42;;;;;;;;;;;;;;;;;;5074851;28;20423;-63
2023/05/30 06:38:07;;;;;;;;;;;;;;;;;;5074165;28;19979;-63
2023/05/30 06:40:33;;;;;;;;;;;;;;;;;;5074089;28;19998;-63
2023/05/30 06:42:59;;;;;;;;;;;;;;;;;;5073820;28;19993;-63
2023/05/30 06:45:25;;;;;;;;;;;;;;;;;;5074389;28;19959;-63
2023/05/30 06:47:51;;;;;;;;;;;;;;;;;;5074649;28;20049;-63
2023/05/30 06:50:17;;;;;;;;;;;;;;;;;;5074037;28;19955;-63
2023/05/30 06:52:45;;;;;;;;;;;;;;;;;;5073102;28;20294;-64
2023/05/30 06:55:11;;;;;;;;;;;;;;;;;;5073928;28;19959;-63
2023/05/30 06:57:37;;;;;;;;;;;;;;;;;;5073825;28;19976;-64
2023/05/30 07:00:03;;;;;;;;;;;;;;;;;;5074714;28;20046;-64
2023/05/30 07:02:29;;;;;;;;;;;;;;;;;;5073888;28;19960;-64
2023/05/30 07:04:55;;;;;;;;;;;;;;;;;;5074071;28;19960;-64
2023/05/30 07:07:21;;;;;;;;;;;;;;;;;;5074370;28;19955;-64
2023/05/30 07:09:47;;;;;;;;;;;;;;;;;;5073754;28;20009;-63
2023/05/30 07:12:13;;;;;;;;;;;;;;;;;;5074030;28;19955;-64
2023/05/30 07:14:38;;;;;;;;;;;;;;;;;;5074010;28;19954;-63
2023/05/30 07:17:06;;;;;;;;;;;;;;;;;;5073630;28;20077;-64
2023/05/30 07:19:32;;;;;;;;;;;;;;;;;;5073012;28;19959;-70
2023/05/30 07:21:58;;;;;;;;;;;;;;;;;;5072745;28;19979;-69
2023/05/30 07:24:24;;;;;;;;;;;;;;;;;;5073850;28;20005;-67
2023/05/30 07:26:50;;;;;;;;;;;;;;;;;;5073885;28;20014;-68
2023/05/30 07:29:16;;;;;;;;;;;;;;;;;;5072672;28;19960;-67
2023/05/30 07:31:42;;;;;;;;;;;;;;;;;;5073821;28;19962;-67
2023/05/30 07:34:07;;;;;;;;;;;;;;;;;;5073624;28;19978;-67
2023/05/30 07:36:33;;;;;;;;;;;;;;;;;;5070151;28;19983;-67
2023/05/30 07:38:59;;;;;;;;;;;;;;;;;;5072894;28;19960;-66
2023/05/30 07:41:26;;;;;;;;;;;;;;;;;;5060977;28;20011;-66
2023/05/30 07:43:51;;;;;;;;;;;;;;;;;;5069232;28;19970;-67
2023/05/30 07:46:18;;;;;;;;;;;;;;;;;;5073348;28;20009;-66
2023/05/30 07:48:43;;;;;;;;;;;;;;;;;;5066685;28;20326;-65
2023/05/30 07:51:09;;;;;;;;;;;;;;;;;;5072354;28;19985;-69
2023/05/30 07:53:36;;;;;;;;;;;;;;;;;;5072910;28;19958;-70
2023/05/30 07:56:02;;;;;;;;;;;;;;;;;;5070715;28;19966;-67
2023/05/30 07:58:28;;;;;;;;;;;;;;;;;;5072271;28;19967;-68
2023/05/30 08:00:54;;;;;;;;;;;;;;;;;;5072639;28;19960;-67
2023/05/30 08:03:20;;;;;;;;;;;;;;;;;;5072814;28;19964;-67
2023/05/30 08:05:46;;;;;;;;;;;;;;;;;;5075477;28;20055;-67
2023/05/30 08:08:12;;;;;;;;;;;;;;;;;;5074939;28;19964;-68
2023/05/30 08:10:38;;;;;;;;;;;;;;;;;;5076824;28;20020;-71
2023/05/30 08:13:04;;;;;;;;;;;;;;;;;;5077287;28;19955;-66
2023/05/30 08:15:31;;;;;;;;;;;;;;;;;;5076538;28;20358;-77
2023/05/30 08:17:57;;;;;;;;;;;;;;;;;;5075592;28;19983;-76
2023/05/30 08:20:23;;;;;;;;;;;;;;;;;;5076343;28;20058;-75
2023/05/30 08:22:50;;;;;;;;;;;;;;;;;;5075764;28;19966;-71
2023/05/30 08:25:16;;;;;;;;;;;;;;;;;;5077345;28;19991;-69
2023/05/30 08:27:42;;;;;;;;;;;;;;;;;;5076566;28;19966;-73
2023/05/30 08:30:08;;;;;;;;;;;;;;;;;;5076379;28;19959;-70
2023/05/30 08:32:34;;;;;;;;;;;;;;;;;;5075355;28;19986;-72
2023/05/30 08:35:00;;;;;;;;;;;;;;;;;;5076411;28;19979;-73
2023/05/30 08:37:26;;;;;;;;;;;;;;;;;;5071027;28;19976;-70
2023/05/30 08:39:52;;;;;;;;;;;;;;;;;;5076247;28;20534;-74
2023/05/30 08:42:18;;;;;;;;;;;;;;;;;;5073364;28;19994;-70
2023/05/30 08:44:44;;;;;;;;;;;;;;;;;;5075096;28;20437;-70
2023/05/30 08:47:12;;;;;;;;;;;;;;;;;;5075343;28;19960;-74
2023/05/30 08:49:40;;;;;;;;;;;;;;;;;;5075623;28;19967;-71
2023/05/30 08:52:06;;;;;;;;;;;;;;;;;;5075875;28;19963;-72
2023/05/30 08:54:31;;;;;;;;;;;;;;;;;;5075938;28;20059;-71
2023/05/30 08:56:57;;;;;;;;;;;;;;;;;;5075831;28;20452;-73
2023/05/30 08:59:23;;;;;;;;;;;;;;;;;;5075532;28;19959;-73
2023/05/30 09:01:49;;;;;;;;;;;;;;;;;;5076788;28;20435;-75
2023/05/30 09:04:15;;;;;;;;;;;;;;;;;;5075513;28;19967;-73
2023/05/30 09:06:41;;;;;;;;;;;;;;;;;;5068094;28;20436;-74
2023/05/30 09:09:08;;;;;;;;;;;;;;;;;;5074614;28;20345;-72
2023/05/30 09:11:34;;;;;;;;;;;;;;;;;;5074311;28;19960;-77
2023/05/30 09:14:00;;;;;;;;;;;;;;;;;;5076044;28;19975;-78
2023/05/30 09:16:26;;;;;;;;;;;;;;;;;;5075197;28;19975;-76
2023/05/30 09:18:52;;;;;;;;;;;;;;;;;;5074936;28;19963;-72
2023/05/30 09:21:18;;;;;;;;;;;;;;;;;;5073983;28;20113;-77
2023/05/30 09:23:44;;;;;;;;;;;;;;;;;;5073202;28;19985;-76
2023/05/30 09:26:14;;;;;;;;;;;;;;;;;;5073941;28;19975;-78
2023/05/30 09:28:40;;;;;;;;;;;;;;;;;;5073732;28;20478;-77
2023/05/30 09:31:06;;;;;;;;;;;;;;;;;;5074661;28;19960;-77
2023/05/30 09:33:32;;;;;;;;;;;;;;;;;;5073643;28;19975;-77
2023/05/30 09:35:58;;;;;;;;;;;;;;;;;;5075168;28;20025;-76
2023/05/30 09:38:24;;;;;;;;;;;;;;;;;;5074814;28;19976;-77
2023/05/30 09:40:50;;;;;;;;;;;;;;;;;;5073034;28;19998;-74
2023/05/30 09:43:16;;;;;;;;;;;;;;;;;;5074699;28;19987;-75
2023/05/30 09:45:42;;;;;;;;;;;;;;;;;;5074673;28;19964;-75
2023/05/30 09:48:08;;;;;;;;;;;;;;;;;;5074537;28;20022;-73
2023/05/30 09:50:34;;;;;;;;;;;;;;;;;;5075205;28;20000;-69
2023/05/30 09:53:00;;;;;;;;;;;;;;;;;;5075380;28;19962;-70
2023/05/30 09:55:26;;;;;;;;;;;;;;;;;;5075360;28;19956;-70
2023/05/30 09:57:52;;;;;;;;;;;;;;;;;;5075581;28;19975;-71
2023/05/30 10:00:18;;;;;;;;;;;;;;;;;;5075570;28;20310;-71
2023/05/30 10:02:43;;;;;;;;;;;;;;;;;;5075096;28;19955;-71
2023/05/30 10:05:09;;;;;;;;;;;;;;;;;;5074915;28;19955;-71
2023/05/30 10:07:35;;;;;;;;;;;;;;;;;;5074112;28;19960;-69
2023/05/30 10:10:01;;;;;;;;;;;;;;;;;;5073735;28;20033;-68
2023/05/30 10:12:27;;;;;;;;;;;;;;;;;;5073887;28;19971;-68
2023/05/30 10:14:53;;;;;;;;;;;;;;;;;;5073650;28;19964;-67
2023/05/30 10:17:19;;;;;;;;;;;;;;;;;;5070525;28;19979;-66
2023/05/30 10:19:45;;;;;;;;;;;;;;;;;;5074186;28;20456;-70
2023/05/30 10:22:11;;;;;;;;;;;;;;;;;;5074264;28;19955;-71
2023/05/30 10:24:37;;;;;;;;;;;;;;;;;;5069278;28;19963;-72
2023/05/30 10:27:03;;;;;;;;;;;;;;;;;;5072762;28;20037;-72
2023/05/30 10:29:29;;;;;;;;;;;;;;;;;;5073400;28;20011;-74
2023/05/30 10:31:55;;;;;;;;;;;;;;;;;;5072868;28;20013;-73
2023/05/30 10:34:21;;;;;;;;;;;;;;;;;;5071960;28;19975;-73
2023/05/30 10:36:47;;;;;;;;;;;;;;;;;;5072292;28;19976;-73
2023/05/30 10:39:13;;;;;;;;;;;;;;;;;;5072569;28;19970;-73
2023/05/30 10:41:39;;;;;;;;;;;;;;;;;;5072115;28;20052;-73
2023/05/30 10:44:05;;;;;;;;;;;;;;;;;;5072599;28;19956;-73
2023/05/30 10:46:31;;;;;;;;;;;;;;;;;;5073145;28;19967;-73
2023/05/30 10:48:57;;;;;;;;;;;;;;;;;;5073321;28;20337;-73
2023/05/30 10:51:22;;;;;;;;;;;;;;;;;;5073994;28;19956;-73
2023/05/30 10:53:49;;;;;;;;;;;;;;;;;;5072775;28;19999;-73
2023/05/30 10:56:15;;;;;;;;;;;;;;;;;;5074509;28;19955;-73
2023/05/30 10:58:41;;;;;;;;;;;;;;;;;;5073932;28;19974;-73
2023/05/30 11:01:07;;;;;;;;;;;;;;;;;;5074476;28;19955;-73
2023/05/30 11:03:33;;;;;;;;;;;;;;;;;;5074469;28;20384;-73
2023/05/30 11:05:59;;;;;;;;;;;;;;;;;;5072588;28;19959;-73
2023/05/30 11:08:25;;;;;;;;;;;;;;;;;;5072525;28;20381;-73
2023/05/30 11:10:51;;;;;;;;;;;;;;;;;;5074100;28;20005;-73
2023/05/30 11:13:17;;;;;;;;;;;;;;;;;;5073750;28;19956;-73
2023/05/30 11:15:43;;;;;;;;;;;;;;;;;;5073736;28;19956;-73
2023/05/30 11:18:08;;;;;;;;;;;;;;;;;;5073885;28;20073;-73
2023/05/30 11:20:34;;;;;;;;;;;;;;;;;;5073930;28;19955;-73
2023/05/30 11:23:00;;;;;;;;;;;;;;;;;;5074222;28;19960;-73
2023/05/30 11:25:27;;;;;;;;;;;;;;;;;;5072329;28;19966;-73
2023/05/30 11:27:53;;;;;;;;;;;;;;;;;;5073595;28;20436;-73
2023/05/30 11:30:19;;;;;;;;;;;;;;;;;;5073596;28;19956;-73
2023/05/30 11:32:45;;;;;;;;;;;;;;;;;;5073562;28;19959;-73
2023/05/30 11:35:11;;;;;;;;;;;;;;;;;;5073450;28;19982;-73
2023/05/30 11:37:37;;;;;;;;;;;;;;;;;;5073963;28;20023;-73
2023/05/30 11:40:08;;;;;;;;;;;;;;;;;;5078308;28;20050;-72
2023/05/30 11:42:34;;;;;;;;;;;;;;;;;;5080002;28;19991;-73
2023/05/30 11:45:00;;;;;;;;;;;;;;;;;;5080479;28;19966;-73
2023/05/30 11:47:26;;;;;;;;;;;;;;;;;;5080121;28;20427;-73
2023/05/30 11:49:52;;;;;;;;;;;;;;;;;;5080079;28;20376;-74
2023/05/30 11:52:19;;;;;;;;;;;;;;;;;;5080024;28;19962;-72
2023/05/30 11:54:45;;;;;;;;;;;;;;;;;;5078713;28;19990;-72
2023/05/30 11:57:16;;;;;;;;;;;;;;;;;;5080212;28;20075;-73
2023/05/30 11:59:42;;;;;;;;;;;;;;;;;;5080340;28;20098;-72
2023/05/30 12:02:08;;;;;;;;;;;;;;;;;;5080508;28;20006;-72
2023/05/30 12:04:34;;;;;;;;;;;;;;;;;;5080429;28;19963;-73
2023/05/30 12:07:00;;;;;;;;;;;;;;;;;;5079928;28;19963;-73
2023/05/30 12:09:26;;;;;;;;;;;;;;;;;;5079899;28;19956;-73
2023/05/30 12:11:52;;;;;;;;;;;;;;;;;;5078585;28;19960;-73
2023/05/30 12:14:18;;;;;;;;;;;;;;;;;;5079897;28;19956;-72
2023/05/30 12:16:44;;;;;;;;;;;;;;;;;;5079768;28;19987;-73
2023/05/30 12:19:10;;;;;;;;;;;;;;;;;;5079817;28;19959;-73
2023/05/30 12:21:36;;;;;;;;;;;;;;;;;;5079785;28;19955;-72
2023/05/30 12:24:02;;;;;;;;;;;;;;;;;;5079793;28;20440;-72
2023/05/30 12:26:29;;;;;;;;;;;;;;;;;;5079723;28;19956;-73
2023/05/30 12:28:55;;;;;;;;;;;;;;;;;;5079992;28;19956;-73
2023/05/30 12:31:21;;;;;;;;;;;;;;;;;;5079654;28;19965;-73
2023/05/30 12:33:47;;;;;;;;;;;;;;;;;;5079778;28;20326;-73
2023/05/30 12:36:12;;;;;;;;;;;;;;;;;;5079668;28;19961;-73
2023/05/30 12:38:38;;;;;;;;;;;;;;;;;;5079920;28;19960;-73
2023/05/30 12:41:05;;;;;;;;;;;;;;;;;;5079870;28;20413;-73
2023/05/30 12:43:30;;;;;;;;;;;;;;;;;;5079274;28;20049;-72
2023/05/30 12:45:56;;;;;;;;;;;;;;;;;;5079547;28;19956;-73
2023/05/30 12:48:22;;;;;;;;;;;;;;;;;;5079504;28;20026;-73
2023/05/30 12:50:48;;;;;;;;;;;;;;;;;;5077761;28;19956;-72
2023/05/30 12:53:14;;;;;;;;;;;;;;;;;;5076325;28;20429;-73
2023/05/30 12:55:40;;;;;;;;;;;;;;;;;;5076645;28;20005;-73
2023/05/30 12:58:06;;;;;;;;;;;;;;;;;;5076161;28;19975;-73
2023/05/30 13:00:32;;;;;;;;;;;;;;;;;;5075452;28;19998;-72
2023/05/30 13:02:58;;;;;;;;;;;;;;;;;;5076154;28;19977;-72
2023/05/30 13:05:24;;;;;;;;;;;;;;;;;;5076417;28;19962;-73
2023/05/30 13:07:50;;;;;;;;;;;;;;;;;;5076028;28;19956;-73
2023/05/30 13:10:16;;;;;;;;;;;;;;;;;;5076119;28;19955;-73
2023/05/30 13:12:42;;;;;;;;;;;;;;;;;;5076535;28;20401;-73
2023/05/30 13:15:08;;;;;;;;;;;;;;;;;;5075902;28;19956;-73
2023/05/30 13:17:34;;;;;;;;;;;;;;;;;;5075809;28;20021;-73
2023/05/30 13:20:01;;;;;;;;;;;;;;;;;;5075798;28;19960;-72
2023/05/30 13:22:27;;;;;;;;;;;;;;;;;;5076446;28;19967;-72
2023/05/30 13:24:53;;;;;;;;;;;;;;;;;;5076051;28;19955;-73
2023/05/30 13:27:18;;;;;;;;;;;;;;;;;;5075710;28;20337;-72
2023/05/30 13:29:46;;;;;;;;;;;;;;;;;;5076179;28;19962;-73
2023/05/30 13:32:12;;;;;;;;;;;;;;;;;;5075645;28;19955;-72
2023/05/30 13:34:37;;;;;;;;;;;;;;;;;;5075480;28;19994;-72
2023/05/30 13:37:03;;;;;;;;;;;;;;;;;;5075710;28;19976;-73
2023/05/30 13:39:29;;;;;;;;;;;;;;;;;;5075494;28;19986;-73
2023/05/30 13:41:56;;;;;;;;;;;;;;;;;;5075318;28;20073;-72
2023/05/30 13:44:22;;;;;;;;;;;;;;;;;;5076015;28;19962;-72
2023/05/30 13:46:47;;;;;;;;;;;;;;;;;;5075365;28;20105;-73
2023/05/30 13:49:13;;;;;;;;;;;;;;;;;;5074047;28;19960;-72
2023/05/30 13:51:39;;;;;;;;;;;;;;;;;;5075234;28;19962;-73
2023/05/30 13:54:06;;;;;;;;;;;;;;;;;;5075460;28;19956;-73
2023/05/30 13:56:32;;;;;;;;;;;;;;;;;;5075089;28;19962;-73
2023/05/30 13:58:58;;;;;;;;;;;;;;;;;;5073750;28;19959;-73
2023/05/30 14:01:24;;;;;;;;;;;;;;;;;;5075630;28;19955;-73
2023/05/30 14:03:50;;;;;;;;;;;;;;;;;;5074123;28;19963;-73
2023/05/30 14:06:16;;;;;;;;;;;;;;;;;;5074973;28;19956;-73
2023/05/30 14:08:42;;;;;;;;;;;;;;;;;;5074874;28;19955;-73
2023/05/30 14:11:08;;;;;;;;;;;;;;;;;;5074831;28;19955;-73
2023/05/30 14:13:33;;;;;;;;;;;;;;;;;;5075041;28;19956;-72
2023/05/30 14:15:59;;;;;;;;;;;;;;;;;;5075040;28;19963;-72
2023/05/30 14:18:25;;;;;;;;;;;;;;;;;;5074610;28;20070;-73
2023/05/30 14:20:51;;;;;;;;;;;;;;;;;;5075212;28;19960;-73
2023/05/30 14:23:17;;;;;;;;;;;;;;;;;;5074602;28;19955;-73
2023/05/30 14:25:44;;;;;;;;;;;;;;;;;;5074836;28;19956;-72
2023/05/30 14:28:10;;;;;;;;;;;;;;;;;;5074546;28;19955;-73
2023/05/30 14:30:37;;;;;;;;;;;;;;;;;;5074457;28;19956;-72
2023/05/30 14:33:02;;;;;;;;;;;;;;;;;;5074425;28;19956;-73
2023/05/30 14:35:29;;;;;;;;;;;;;;;;;;5074336;28;19978;-73
2023/05/30 14:37:55;;;;;;;;;;;;;;;;;;5074556;28;19998;-73
2023/05/30 14:40:21;;;;;;;;;;;;;;;;;;5074249;28;20417;-73
2023/05/30 14:42:47;;;;;;;;;;;;;;;;;;5074075;28;20364;-72
2023/05/30 14:45:13;;;;;;;;;;;;;;;;;;5074239;28;20497;-72
2023/05/30 14:47:39;;;;;;;;;;;;;;;;;;5074178;28;19956;-72
2023/05/30 14:50:05;;;;;;;;;;;;;;;;;;5074398;28;20002;-73
2023/05/30 14:52:31;;;;;;;;;;;;;;;;;;5074294;28;19959;-72
2023/05/30 14:54:58;;;;;;;;;;;;;;;;;;5072765;28;20341;-73
2023/05/30 14:57:23;;;;;;;;;;;;;;;;;;5073996;28;19979;-74
2023/05/30 14:59:50;;;;;;;;;;;;;;;;;;5074242;28;20073;-72
2023/05/30 15:02:16;;;;;;;;;;;;;;;;;;5074495;28;19969;-72
2023/05/30 15:04:42;;;;;;;;;;;;;;;;;;5074140;28;20046;-72
2023/05/30 15:07:08;;;;;;;;;;;;;;;;;;5073875;28;20369;-73
2023/05/30 15:09:34;;;;;;;;;;;;;;;;;;5073876;28;20329;-72
2023/05/30 15:12:00;;;;;;;;;;;;;;;;;;5074357;28;19956;-72
2023/05/30 15:14:26;;;;;;;;;;;;;;;;;;5073356;28;19962;-72
2023/05/30 15:16:52;;;;;;;;;;;;;;;;;;5073679;28;19975;-72
2023/05/30 15:19:19;;;;;;;;;;;;;;;;;;5073946;28;19956;-73
2023/05/30 15:21:45;;;;;;;;;;;;;;;;;;5072116;28;19978;-72
2023/05/30 15:24:11;;;;;;;;;;;;;;;;;;5073923;28;19959;-72
2023/05/30 15:26:36;;;;;;;;;;;;;;;;;;5073893;28;19956;-72
2023/05/30 15:29:03;;;;;;;;;;;;;;;;;;5073640;28;19998;-73
2023/05/30 15:31:29;;;;;;;;;;;;;;;;;;5073604;28;20436;-72
2023/05/30 15:33:55;;;;;;;;;;;;;;;;;;5073559;28;19979;-73
2023/05/30 15:36:22;;;;;;;;;;;;;;;;;;5073494;28;19987;-73
2023/05/30 15:38:49;;;;;;;;;;;;;;;;;;5073571;28;20008;-72
2023/05/30 15:41:15;;;;;;;;;;;;;;;;;;5072022;28;20024;-73
2023/05/30 15:43:42;;;;;;;;;;;;;;;;;;5073360;28;20033;-72
2023/05/30 15:46:08;;;;;;;;;;;;;;;;;;5073511;28;19964;-73
2023/05/30 15:48:34;;;;;;;;;;;;;;;;;;5073688;28;19959;-73
2023/05/30 15:51:00;;;;;;;;;;;;;;;;;;5073392;28;19956;-73
2023/05/30 15:53:26;;;;;;;;;;;;;;;;;;5073985;28;19959;-72
2023/05/30 15:55:52;;;;;;;;;;;;;;;;;;5073334;28;19963;-73
2023/05/30 15:58:18;;;;;;;;;;;;;;;;;;5073254;28;19975;-73
2023/05/30 16:00:47;;;;;;;;;;;;;;;;;;5073550;28;19959;-73
2023/05/30 16:03:16;;;;;;;;;;;;;;;;;;5073262;28;19966;-72
2023/05/30 16:05:42;;;;;;;;;;;;;;;;;;5073229;28;19955;-72
2023/05/30 16:08:08;;;;;;;;;;;;;;;;;;5073443;28;19956;-72
2023/05/30 16:10:35;;;;;;;;;;;;;;;;;;5073771;28;20009;-73
2023/05/30 16:13:01;;;;;;;;;;;;;;;;;;5073175;28;20436;-72
2023/05/30 16:15:27;;;;;;;;;;;;;;;;;;5073714;28;19955;-73
2023/05/30 16:17:53;;;;;;;;;;;;;;;;;;5073038;28;19975;-72
2023/05/30 16:20:19;;;;;;;;;;;;;;;;;;5073090;28;19995;-72
2023/05/30 16:22:46;;;;;;;;;;;;;;;;;;5073341;28;20008;-72
2023/05/30 16:25:11;;;;;;;;;;;;;;;;;;5073093;28;19955;-72
2023/05/30 16:27:37;;;;;;;;;;;;;;;;;;5076433;28;19964;-72
2023/05/30 16:30:03;;;;;;;;;;;;;;;;;;5077195;28;19963;-73
2023/05/30 16:32:29;;;;;;;;;;;;;;;;;;5076570;28;19955;-70
2023/05/30 16:34:55;;;;;;;;;;;;;;;;;;5077114;28;20291;-72
2023/05/30 16:37:21;;;;;;;;;;;;;;;;;;5076107;28;20069;-72